Terminal Aerodrome Forecast
Issued by NWS

Home | Current Version | Previous Version | Text Only | Print | Product List | Glossary On
Versions: 1 2 3 4 5 6 7 8 9 10 11 12 13
000
FTUS43 KDTX 241226 AAA
TAFMBS
TAF AMD
KMBS 241226Z 2412/2512 22008KT P6SM BKN060 WS020/25045KT
     FM241900 23012G20KT P6SM BKN022 OVC040
     FM242200 05010KT 3SM -RA BR OVC008
     FM250500 04006KT 1SM -RA BR OVC006=

USA.gov is the U.S. government's official web portal to all federal, state and local government web resources and services.